Time;durP1;ratioP1;P1;durP2;ratioP2;P2;SDS_P1;SDS_P2;PMS_P1;PMS_P2;Temp;Humidity;BMP_temperature;BMP_pressure;BME280_temperature;BME280_humidity;BME280_pressure;Samples;Min_cycle;Max_cycle;Signal;HPM_P1;HPM_P2
2022/07/21 00:01:55;;;;;;;14.35;12.88;;;;;;;19.45;93.24;95976.72;5026123;28;20567;-80
2022/07/21 00:04:21;;;;;;;14.90;13.23;;;;;;;19.55;92.67;95971.09;5032326;28;20190;-82
2022/07/21 00:06:46;;;;;;;15.02;13.38;;;;;;;19.42;92.45;95974.44;5022280;28;20269;-82
2022/07/21 00:09:12;;;;;;;14.15;12.75;;;;;;;19.31;92.98;95974.97;5004460;28;20570;-82
2022/07/21 00:11:38;;;;;;;14.98;13.45;;;;;;;19.18;93.92;95964.34;5025018;28;20229;-81
2022/07/21 00:14:04;;;;;;;14.40;13.00;;;;;;;19.11;94.55;95966.94;5034438;28;20174;-81
2022/07/21 00:16:30;;;;;;;16.48;14.77;;;;;;;19.05;95.73;95980.03;5037832;28;20232;-81
2022/07/21 00:18:55;;;;;;;16.20;14.50;;;;;;;19.09;95.81;95981.28;5033931;28;20182;-81
2022/07/21 00:21:20;;;;;;;15.95;14.35;;;;;;;19.14;95.89;95990.22;5033489;28;20255;-83
2022/07/21 00:23:46;;;;;;;18.45;15.23;;;;;;;19.27;95.23;95994.81;5040391;28;20189;-81
2022/07/21 00:26:11;;;;;;;16.10;14.40;;;;;;;19.36;94.72;95993.66;5041419;28;20186;-82
2022/07/21 00:28:36;;;;;;;16.08;14.55;;;;;;;19.37;94.36;96005.00;5020950;28;20577;-83
2022/07/21 00:31:02;;;;;;;17.40;15.40;;;;;;;19.27;94.89;96001.88;5030466;28;20262;-82
2022/07/21 00:33:27;;;;;;;16.38;14.88;;;;;;;19.23;94.91;96009.34;5056835;28;20189;-81
2022/07/21 00:35:52;;;;;;;19.35;16.85;;;;;;;18.86;98.51;96000.72;5035111;28;20208;-82
2022/07/21 00:38:18;;;;;;;17.27;15.48;;;;;;;19.21;96.61;96000.81;5035394;28;20186;-82
2022/07/21 00:40:43;;;;;;;17.27;15.48;;;;;;;19.12;96.48;96002.78;5052332;28;20184;-83
2022/07/21 00:43:08;;;;;;;18.45;16.67;;;;;;;18.90;98.62;95996.69;5055234;28;20197;-82
2022/07/21 00:45:34;;;;;;;16.02;14.43;;;;;;;19.02;98.18;95993.56;5055343;28;20182;-83
2022/07/21 00:47:59;;;;;;;14.30;12.77;;;;;;;19.24;96.52;95995.16;5023055;28;20204;-83
2022/07/21 00:50:24;;;;;;;15.38;13.98;;;;;;;19.07;96.97;95989.34;5035343;28;20206;-81
2022/07/21 00:52:50;;;;;;;14.65;13.30;;;;;;;19.27;95.51;95994.81;5027509;28;20225;-82
2022/07/21 00:55:19;;;;;;;15.32;13.40;;;;;;;19.27;95.51;95994.00;5038048;28;20269;-81
2022/07/21 00:57:45;;;;;;;14.38;12.95;;;;;;;19.47;94.36;96001.03;5053947;28;20185;-79
2022/07/21 01:00:14;;;;;;;14.35;13.10;;;;;;;19.39;94.64;95993.25;5045796;28;20169;-80
2022/07/21 01:02:40;;;;;;;14.88;13.43;;;;;;;19.46;94.10;96003.84;5061659;28;20202;-79
2022/07/21 01:05:12;;;;;;;13.20;12.00;;;;;;;19.37;94.29;96003.19;5061868;28;20226;-80
2022/07/21 01:07:37;;;;;;;14.27;12.88;;;;;;;19.48;93.69;95996.56;5061468;28;20185;-80
2022/07/21 01:10:03;;;;;;;14.25;12.73;;;;;;;19.53;93.23;96002.91;5078755;28;20204;-79
2022/07/21 01:12:28;;;;;;;13.65;12.20;;;;;;;19.46;92.53;96001.22;5058301;28;20645;-80
2022/07/21 01:14:54;;;;;;;13.13;11.93;;;;;;;19.34;93.01;95989.56;5059773;28;20182;-82
2022/07/21 01:17:19;;;;;;;13.18;12.00;;;;;;;19.49;92.14;95999.00;5043056;28;20616;-82
2022/07/21 01:19:45;;;;;;;13.15;11.93;;;;;;;19.55;91.61;95997.44;5038068;28;20181;-82
2022/07/21 01:22:10;;;;;;;13.90;12.60;;;;;;;19.36;92.81;95993.66;5022549;28;20203;-82
2022/07/21 01:24:36;;;;;;;14.77;13.30;;;;;;;19.50;92.71;95989.28;5016896;28;20185;-82
2022/07/21 01:27:01;;;;;;;13.48;12.27;;;;;;;19.40;91.83;96002.78;5052765;28;20190;-82
2022/07/21 01:29:26;;;;;;;13.25;11.95;;;;;;;19.49;91.88;96009.53;5049405;28;20206;-81
2022/07/21 01:31:51;;;;;;;12.70;11.60;;;;;;;19.51;91.07;96011.97;5057435;28;20225;-81
2022/07/21 01:34:20;;;;;;;11.77;10.63;;;;;;;19.65;90.15;96000.56;5057955;28;20174;-81
2022/07/21 01:36:46;;;;;;;10.68;9.57;;;;;;;19.65;88.55;95991.84;5041366;28;20264;-81
2022/07/21 01:41:55;;;;;;;11.80;10.15;;;;;;;19.51;88.64;96004.06;5064420;28;20277;-81
2022/07/21 01:44:21;;;;;;;11.90;10.85;;;;;;;19.52;89.83;96000.44;5056608;28;20205;-81
2022/07/21 01:46:49;;;;;;;11.32;10.23;;;;;;;19.65;89.17;96002.41;5040369;28;20197;-81
2022/07/21 01:49:16;;;;;;;11.75;10.52;;;;;;;19.70;88.44;96000.81;5056951;28;20206;-82
2022/07/21 01:51:41;;;;;;;11.52;10.45;;;;;;;19.68;88.23;96013.34;5040558;28;20574;-81
2022/07/21 01:54:08;;;;;;;13.00;10.00;;;;;;;19.73;87.99;96004.88;5054991;28;20180;-81
2022/07/21 01:56:35;;;;;;;11.85;10.70;;;;;;;19.71;87.07;96006.91;5039629;28;20186;-82
2022/07/21 01:59:00;;;;;;;11.65;10.55;;;;;;;19.70;86.56;96015.78;5056678;28;20552;-81
2022/07/21 02:01:28;;;;;;;13.15;11.07;;;;;;;19.70;87.00;96015.78;5040205;28;20269;-81
2022/07/21 02:03:55;;;;;;;12.80;11.35;;;;;;;19.70;86.63;96021.06;5021795;28;20225;-79
2022/07/21 02:06:20;;;;;;;10.90;9.80;;;;;;;19.72;86.40;96022.50;5038892;28;20177;-81
2022/07/21 02:08:45;;;;;;;12.50;11.18;;;;;;;19.66;87.14;96031.19;5053596;28;20231;-81
2022/07/21 02:11:12;;;;;;;11.75;10.65;;;;;;;19.82;87.04;96030.06;5038287;28;20599;-80
2022/07/21 02:13:38;;;;;;;12.80;11.52;;;;;;;19.70;88.39;96026.31;5033870;28;20183;-82
2022/07/21 02:16:04;;;;;;;11.25;10.25;;;;;;;19.86;87.51;96019.94;5030234;28;20181;-82
2022/07/21 02:18:29;;;;;;;11.38;10.25;;;;;;;19.91;87.72;96017.56;5054297;28;20174;-80
2022/07/21 02:20:54;;;;;;;14.57;11.43;;;;;;;19.64;89.50;96027.13;5053470;28;20575;-81
2022/07/21 02:23:22;;;;;;;12.27;11.13;;;;;;;19.72;89.83;96026.97;5020598;28;20258;-81
2022/07/21 02:25:47;;;;;;;12.77;11.57;;;;;;;19.64;90.82;96021.84;5019962;28;20642;-82
2022/07/21 02:28:13;;;;;;;14.55;13.07;;;;;;;19.45;91.87;96018.84;5037854;28;20235;-82
2022/07/21 02:30:38;;;;;;;14.60;12.35;;;;;;;19.53;91.41;96017.91;5022002;28;20208;-82
2022/07/21 02:33:04;;;;;;;12.48;11.05;;;;;;;19.55;91.05;96021.16;5039516;28;20288;-81
2022/07/21 02:35:29;;;;;;;12.90;11.70;;;;;;;19.40;91.93;96025.69;5054397;28;20184;-81
2022/07/21 02:37:54;;;;;;;12.82;11.73;;;;;;;19.33;92.04;96022.97;5037821;28;20185;-82
2022/07/21 02:40:20;;;;;;;12.32;11.13;;;;;;;19.44;90.77;96025.13;5038558;28;20201;-80
2022/07/21 02:42:45;;;;;;;13.73;11.50;;;;;;;19.43;90.79;96025.28;5037472;28;20202;-81
2022/07/21 02:45:11;;;;;;;12.88;11.52;;;;;;;19.44;91.19;96032.22;5054174;28;20189;-81
2022/07/21 02:48:03;;;;;;;13.30;12.10;;;;;;;19.47;91.12;96043.16;5052346;28;20650;-79
2022/07/21 02:50:34;;;;;;;13.40;12.07;;;;;;;19.49;91.69;96030.63;5036022;28;20197;-80
2022/07/21 02:53:09;;;;;;;13.57;12.18;;;;;;;19.39;92.17;96032.78;5052407;28;20202;-81
2022/07/21 02:55:35;;;;;;;12.77;11.70;;;;;;;19.40;91.77;96041.47;5035258;28;20177;-81
2022/07/21 02:58:22;;;;;;;12.90;11.73;;;;;;;19.42;91.69;96045.53;5052843;28;20281;-80
2022/07/21 03:00:53;;;;;;;12.65;11.45;;;;;;;19.34;92.19;96044.88;5052075;28;20178;-82
2022/07/21 03:03:20;;;;;;;13.43;11.27;;;;;;;19.38;92.27;96048.75;5053843;28;20204;-82
2022/07/21 03:05:45;;;;;;;13.95;12.55;;;;;;;19.38;92.12;96054.84;5053584;28;20180;-80
2022/07/21 03:08:11;;;;;;;13.98;12.75;;;;;;;19.36;91.99;96064.75;5054273;28;20174;-81
2022/07/21 03:10:37;;;;;;;14.90;13.35;;;;;;;19.36;92.24;96056.84;5053975;28;20204;-82
2022/07/21 03:13:03;;;;;;;15.00;13.60;;;;;;;19.38;91.81;96056.66;5037332;28;20198;-80
2022/07/21 03:15:28;;;;;;;13.77;12.50;;;;;;;19.37;91.88;96047.13;5035802;28;20608;-81
2022/07/21 03:17:54;;;;;;;14.20;12.90;;;;;;;19.36;91.32;96050.78;5040002;28;20202;-82
2022/07/21 03:20:22;;;;;;;15.52;14.02;;;;;;;19.36;91.47;96048.97;5048869;28;20216;-81
2022/07/21 03:22:48;;;;;;;14.52;13.18;;;;;;;19.34;91.44;96043.03;5057968;28;20193;-83
2022/07/21 03:25:13;;;;;;;15.15;13.73;;;;;;;19.32;91.15;96049.50;5055111;28;20182;-83
2022/07/21 03:27:38;;;;;;;15.13;13.45;;;;;;;19.31;91.42;96053.97;5057317;28;20178;-83
2022/07/21 03:30:06;;;;;;;14.85;13.27;;;;;;;19.28;91.03;96051.72;5034392;28;20262;-83
2022/07/21 03:32:31;;;;;;;15.13;13.70;;;;;;;19.21;92.01;96059.56;5002451;28;20445;-83
2022/07/21 03:34:56;;;;;;;16.20;14.70;;;;;;;19.13;92.22;96062.31;5022857;28;20177;-83
2022/07/21 03:37:22;;;;;;;15.82;14.32;;;;;;;19.15;92.50;96059.47;5037683;28;20182;-82
2022/07/21 03:39:47;;;;;;;16.38;14.82;;;;;;;19.08;92.82;96062.06;5037029;28;20189;-82
2022/07/21 03:42:12;;;;;;;16.23;14.85;;;;;;;19.08;93.71;96058.59;5037365;28;20570;-82
2022/07/21 03:44:37;;;;;;;16.67;15.05;;;;;;;19.08;93.58;96064.72;5052209;28;20186;-79
2022/07/21 03:47:03;;;;;;;17.05;15.45;;;;;;;19.11;92.98;96064.31;5052791;28;20649;-81
2022/07/21 03:49:28;;;;;;;16.80;14.88;;;;;;;19.18;93.10;96059.13;5028642;28;20252;-80
2022/07/21 03:51:53;;;;;;;16.75;15.05;;;;;;;19.19;93.33;96055.50;5016125;28;20206;-81
2022/07/21 03:54:19;;;;;;;16.25;14.70;;;;;;;19.18;93.38;96057.31;5021529;28;20185;-81
2022/07/21 03:56:44;;;;;;;16.60;14.75;;;;;;;19.17;92.99;96053.06;5053877;28;20208;-80
2022/07/21 03:59:09;;;;;;;17.85;16.20;;;;;;;19.09;93.52;96055.81;5035832;28;20201;-81
2022/07/21 04:01:35;;;;;;;16.40;14.57;;;;;;;18.99;92.43;96055.28;5035351;28;20241;-81
2022/07/21 04:04:00;;;;;;;15.45;14.00;;;;;;;18.90;91.35;96044.06;5051689;28;20194;-79
2022/07/21 04:06:25;;;;;;;15.95;14.38;;;;;;;18.95;90.08;96059.28;5037570;28;20342;-81
2022/07/21 04:08:50;;;;;;;16.33;14.15;;;;;;;19.05;89.61;96070.31;5033315;28;20182;-82
2022/07/21 04:11:16;;;;;;;15.93;14.30;;;;;;;18.91;90.90;96076.47;5018199;28;20241;-81
2022/07/21 04:13:41;;;;;;;17.42;14.52;;;;;;;18.85;92.29;96072.75;5021500;28;20217;-82
2022/07/21 04:16:06;;;;;;;17.25;15.55;;;;;;;18.87;93.23;96069.94;5014269;28;20182;-81
2022/07/21 04:18:32;;;;;;;17.00;15.23;;;;;;;18.93;93.22;96080.53;5006397;28;20177;-81
2022/07/21 04:20:57;;;;;;;16.88;15.23;;;;;;;19.00;93.16;96077.19;5043855;28;20182;-82
2022/07/21 04:23:22;;;;;;;16.35;14.80;;;;;;;18.99;93.17;96078.97;5029486;28;20210;-82
2022/07/21 04:25:48;;;;;;;17.30;15.60;;;;;;;19.08;92.66;96083.13;5033947;28;20182;-83
2022/07/21 04:28:13;;;;;;;15.27;13.77;;;;;;;19.19;91.37;96081.81;5053004;28;20177;-81
2022/07/21 04:30:38;;;;;;;14.88;13.48;;;;;;;19.29;89.76;96090.22;5034247;28;20206;-81
2022/07/21 04:33:04;;;;;;;13.00;11.80;;;;;;;19.51;88.35;96094.44;5019804;28;20240;-81
2022/07/21 04:35:29;;;;;;;14.10;12.70;;;;;;;19.50;87.76;96082.28;5031647;28;20200;-82
2022/07/21 04:37:54;;;;;;;13.00;11.75;;;;;;;19.50;87.32;96082.28;5051783;28;20182;-82
2022/07/21 04:40:20;;;;;;;13.93;12.35;;;;;;;19.56;86.49;96078.13;5050018;28;20541;-82
2022/07/21 04:42:45;;;;;;;13.00;11.73;;;;;;;20.64;80.92;96082.03;5035257;28;20213;-83
2022/07/21 04:45:12;;;;;;;12.10;10.35;;;;;;;20.78;78.62;96088.19;5031819;28;20205;-80
2022/07/21 04:47:43;;;;;;;11.20;10.05;;;;;;;20.57;77.71;96082.00;5034849;28;20170;-81
2022/07/21 04:50:09;;;;;;;13.73;10.77;;;;;;;20.38;78.55;96090.59;5035198;28;20289;-81
2022/07/21 04:52:34;;;;;;;10.45;9.55;;;;;;;20.37;78.37;96092.44;5019153;28;20198;-81
2022/07/21 04:55:00;;;;;;;10.60;9.50;;;;;;;21.94;71.68;96094.03;5050710;28;20188;-83
2022/07/21 04:57:25;;;;;;;9.98;9.00;;;;;;;23.77;65.21;96105.13;5063843;28;20623;-81
2022/07/21 04:59:50;;;;;;;10.05;9.05;;;;;;;25.03;58.41;96108.13;5042513;28;20178;-82
2022/07/21 05:02:16;;;;;;;9.65;8.77;;;;;;;25.85;56.31;96099.59;5057066;28;20201;-85
2022/07/21 05:04:41;;;;;;;9.50;8.52;;;;;;;26.59;53.14;96100.72;5056817;28;20170;-82
2022/07/21 05:07:07;;;;;;;10.10;9.10;;;;;;;26.18;52.42;96102.50;5056310;28;20241;-83
2022/07/21 05:09:32;;;;;;;9.52;8.52;;;;;;;24.60;56.30;96107.41;5055786;28;20193;-82
2022/07/21 05:11:57;;;;;;;9.93;8.95;;;;;;;24.25;59.36;96102.63;5053122;28;20200;-82
2022/07/21 05:14:23;;;;;;;10.00;9.07;;;;;;;24.70;57.96;96105.84;5009323;28;20197;-83
2022/07/21 05:16:48;;;;;;;9.32;8.48;;;;;;;25.17;56.50;96113.25;5013165;28;20185;-83
2022/07/21 05:19:13;;;;;;;9.18;8.15;;;;;;;24.30;59.78;96111.56;5028069;28;20197;-82
2022/07/21 05:21:39;;;;;;;9.27;8.48;;;;;;;23.77;61.89;96111.25;5026613;28;20252;-82
2022/07/21 05:24:04;;;;;;;12.05;10.02;;;;;;;23.08;64.72;96106.78;5033744;28;20185;-82
2022/07/21 05:26:29;;;;;;;10.52;9.63;;;;;;;22.86;65.94;96107.06;5053162;28;20185;-82
2022/07/21 05:28:55;;;;;;;10.32;9.27;;;;;;;23.44;64.23;96109.59;5019655;28;20668;-82
2022/07/21 05:31:20;;;;;;;9.75;8.90;;;;;;;25.05;58.30;96114.03;5037411;28;20214;-82
2022/07/21 05:33:45;;;;;;;9.55;8.68;;;;;;;25.61;55.20;96118.13;5032262;28;20238;-82
2022/07/21 05:36:10;;;;;;;9.57;8.77;;;;;;;26.50;54.13;96118.09;5038212;28;20189;-82
2022/07/21 05:38:36;;;;;;;10.05;9.15;;;;;;;27.14;50.68;96118.94;5030003;28;20557;-82
2022/07/21 05:41:04;;;;;;;10.98;8.52;;;;;;;27.36;50.06;96130.53;5029449;28;20170;-82
2022/07/21 05:43:30;;;;;;;9.52;8.43;;;;;;;28.25;47.52;96135.22;5033481;28;20189;-82
2022/07/21 05:45:56;;;;;;;9.93;8.48;;;;;;;28.60;45.52;96132.28;5027732;28;20530;-81
2022/07/21 05:48:21;;;;;;;9.75;8.77;;;;;;;28.78;44.34;96136.50;5028857;28;20273;-81
2022/07/21 05:50:46;;;;;;;9.80;8.23;;;;;;;29.65;42.20;96132.19;5033080;28;20541;-79
2022/07/21 05:53:11;;;;;;;8.82;8.02;;;;;;;29.70;42.04;96133.03;5036259;28;20210;-79
2022/07/21 05:55:37;;;;;;;9.38;8.48;;;;;;;29.57;41.70;96144.94;5034917;28;20190;-82
2022/07/21 05:58:02;;;;;;;9.60;8.70;;;;;;;29.60;42.22;96141.78;5021204;28;20312;-79
2022/07/21 06:00:27;;;;;;;10.15;8.07;;;;;;;29.78;42.27;96135.25;5035605;28;20194;-79
2022/07/21 06:02:53;;;;;;;8.90;8.07;;;;;;;31.12;38.40;96143.09;5054838;28;20208;-80
2022/07/21 06:05:18;;;;;;;8.85;8.13;;;;;;;30.82;38.78;96149.13;5048551;28;20559;-79
2022/07/21 06:07:43;;;;;;;8.15;7.45;;;;;;;30.55;38.38;96157.25;5017629;28;20202;-80
2022/07/21 06:10:09;;;;;;;7.82;7.03;;;;;;;30.93;38.65;96145.44;5019961;28;20198;-80
2022/07/21 06:12:34;;;;;;;8.27;7.57;;;;;;;31.08;38.33;96156.22;5019295;28;20630;-80
2022/07/21 06:15:00;;;;;;;8.80;7.85;;;;;;;30.42;39.09;96156.66;5034540;28;20182;-80
2022/07/21 06:17:25;;;;;;;8.00;7.20;;;;;;;29.87;38.49;96139.09;5000856;28;20181;-80
2022/07/21 06:19:50;;;;;;;7.45;6.75;;;;;;;30.62;38.12;96139.88;5028081;28;20596;-80
2022/07/21 06:22:16;;;;;;;7.88;7.07;;;;;;;31.14;36.96;96149.00;5015340;28;20214;-80
2022/07/21 06:24:41;;;;;;;8.18;7.35;;;;;;;31.46;36.43;96146.97;5042514;28;20181;-80
2022/07/21 06:27:07;;;;;;;8.60;7.47;;;;;;;29.79;39.13;96141.41;5037074;28;20199;-80
2022/07/21 06:29:32;;;;;;;8.25;7.45;;;;;;;29.66;39.68;96153.31;5049375;28;20236;-80
2022/07/21 06:31:58;;;;;;;8.98;7.68;;;;;;;27.30;44.28;96134.16;5031524;28;20205;-81
2022/07/21 06:34:23;;;;;;;7.55;6.95;;;;;;;26.62;47.27;96140.22;5013692;28;20190;-81
2022/07/21 06:36:48;;;;;;;8.30;7.03;;;;;;;25.71;50.05;96144.22;5036004;28;20182;-81
2022/07/21 06:39:15;;;;;;;8.57;7.78;;;;;;;25.31;52.30;96146.59;5037192;28;20174;-81
2022/07/21 06:41:40;;;;;;;10.23;8.02;;;;;;;24.57;54.35;96137.88;5052650;28;20198;-80
2022/07/21 06:44:06;;;;;;;10.95;8.73;;;;;;;26.72;49.24;96143.09;5032296;28;20528;-81
2022/07/21 06:46:34;;;;;;;8.10;7.40;;;;;;;27.81;45.65;96155.59;5035865;28;20181;-82
2022/07/21 06:49:00;;;;;;;8.25;7.55;;;;;;;27.32;46.36;96150.72;5019739;28;20182;-82
2022/07/21 06:51:26;;;;;;;8.73;7.93;;;;;;;25.75;49.63;96155.22;5036598;28;20208;-82
2022/07/21 06:53:52;;;;;;;10.02;7.35;;;;;;;25.62;51.47;96161.47;5054273;28;20170;-81
2022/07/21 06:56:20;;;;;;;8.35;7.53;;;;;;;26.61;47.52;96156.44;5053097;28;20201;-81
2022/07/21 06:58:47;;;;;;;8.73;7.93;;;;;;;26.26;49.24;96154.59;5035883;28;20240;-81
2022/07/21 07:01:13;;;;;;;8.43;7.47;;;;;;;26.01;51.11;96153.97;5004809;28;20186;-81
2022/07/21 07:03:39;;;;;;;8.60;7.82;;;;;;;27.83;45.86;96161.50;5040467;28;20258;-82
2022/07/21 07:06:05;;;;;;;8.02;7.43;;;;;;;26.94;46.36;96153.94;5018778;28;20193;-82
2022/07/21 07:08:31;;;;;;;8.23;7.47;;;;;;;26.55;47.93;96160.84;5038019;28;20185;-82
2022/07/21 07:10:57;;;;;;;8.77;7.32;;;;;;;26.03;48.03;96162.53;5051278;28;20194;-82
2022/07/21 07:13:22;;;;;;;8.38;7.63;;;;;;;24.95;52.46;96160.72;5075479;28;20244;-81
2022/07/21 07:15:47;;;;;;;7.70;7.10;;;;;;;24.83;52.21;96152.69;5059629;28;20178;-80
2022/07/21 07:18:13;;;;;;;8.20;7.50;;;;;;;24.59;52.78;96157.03;5059651;28;20201;-80
2022/07/21 07:20:38;;;;;;;8.88;7.50;;;;;;;24.89;52.83;96154.44;5059422;28;20201;-80
2022/07/21 07:23:04;;;;;;;7.95;7.15;;;;;;;24.78;53.17;96152.53;5020164;28;20281;-81
2022/07/21 07:25:29;;;;;;;6.97;6.28;;;;;;;25.78;48.65;96158.22;5036820;28;20186;-82
2022/07/21 07:27:56;;;;;;;7.60;6.85;;;;;;;27.59;43.85;96166.16;5050390;28;20213;-83
2022/07/21 07:30:22;;;;;;;7.97;6.72;;;;;;;28.90;40.71;96169.31;5037646;28;20294;-82
2022/07/21 07:32:47;;;;;;;7.40;5.90;;;;;;;28.82;39.89;96174.25;5020956;28;20240;-82
2022/07/21 07:35:13;;;;;;;6.68;6.03;;;;;;;28.22;41.27;96175.78;5035443;28;20185;-82
2022/07/21 07:37:40;;;;;;;6.47;5.85;;;;;;;26.77;44.25;96177.06;5020592;28;20174;-81
2022/07/21 07:40:08;;;;;;;7.30;5.55;;;;;;;26.35;44.91;96179.81;5052064;28;20269;-82
2022/07/21 07:42:35;;;;;;;7.63;6.00;;;;;;;25.73;47.21;96175.91;5034288;28;20205;-82
2022/07/21 07:45:00;;;;;;;6.50;5.90;;;;;;;25.02;49.75;96177.41;5011963;28;20170;-80
2022/07/21 07:47:27;;;;;;;6.90;5.90;;;;;;;25.38;48.37;96173.91;5048379;28;20178;-83
2022/07/21 07:49:52;;;;;;;6.82;5.88;;;;;;;25.06;48.10;96179.41;5053307;28;20205;-82
2022/07/21 07:52:19;;;;;;;5.90;5.35;;;;;;;24.81;48.48;96168.03;5048887;28;20200;-79
2022/07/21 07:54:44;;;;;;;5.68;5.07;;;;;;;25.02;48.28;96172.94;5066222;28;20170;-79
2022/07/21 07:57:09;;;;;;;6.55;5.25;;;;;;;25.93;45.50;96173.75;5042482;28;20185;-81
2022/07/21 07:59:35;;;;;;;6.32;5.30;;;;;;;27.01;43.67;96175.13;5044237;28;20182;-80
2022/07/21 08:02:00;;;;;;;5.95;5.00;;;;;;;26.91;43.58;96173.06;5023154;28;20236;-77
2022/07/21 08:04:25;;;;;;;6.15;4.40;;;;;;;26.38;43.14;96167.91;5052746;28;20185;-80
2022/07/21 08:06:50;;;;;;;6.85;4.53;;;;;;;27.29;42.03;96171.72;5035954;28;20177;-80
2022/07/21 08:09:18;;;;;;;4.78;4.30;;;;;;;27.88;39.42;96170.41;5051573;28;20198;-80
2022/07/21 08:11:46;;;;;;;5.05;4.55;;;;;;;26.68;41.32;96168.59;5014875;28;20271;-80
2022/07/21 08:14:11;;;;;;;6.13;4.80;;;;;;;26.64;43.12;96174.63;5036048;28;20193;-80
2022/07/21 08:16:36;;;;;;;5.60;4.50;;;;;;;25.39;43.77;96163.03;5013802;28;20194;-79
2022/07/21 08:19:02;;;;;;;4.30;3.90;;;;;;;25.22;44.62;96163.91;5030987;28;20239;-82
2022/07/21 08:21:30;;;;;;;4.30;3.90;;;;;;;25.68;44.84;96161.41;5032317;28;20202;-79
2022/07/21 08:23:56;;;;;;;4.45;4.05;;;;;;;25.47;45.11;96164.56;5039349;28;20173;-80
2022/07/21 08:26:21;;;;;;;4.30;3.85;;;;;;;25.99;43.04;96162.19;5060332;28;20182;-80
2022/07/21 08:28:47;;;;;;;4.30;3.90;;;;;;;25.78;44.31;96162.72;5036516;28;20247;-79
2022/07/21 08:31:12;;;;;;;4.38;3.97;;;;;;;26.53;42.36;96165.59;5031462;28;20205;-79
2022/07/21 08:33:37;;;;;;;4.88;4.30;;;;;;;26.26;41.38;96166.03;5031963;28;20209;-79
2022/07/21 08:36:03;;;;;;;10.25;4.85;;;;;;;26.08;42.82;96168.81;5018868;28;20229;-80
2022/07/21 08:38:28;;;;;;;5.00;4.28;;;;;;;25.41;44.75;96160.97;5020146;28;20190;-80
2022/07/21 08:40:54;;;;;;;7.35;4.00;;;;;;;25.14;45.75;96173.78;5037481;28;20196;-80
2022/07/21 08:43:19;;;;;;;4.40;4.00;;;;;;;25.30;45.57;96171.56;5019928;28;20204;-79
2022/07/21 08:45:44;;;;;;;4.70;4.30;;;;;;;25.52;43.73;96178.00;5036142;28;20178;-80
2022/07/21 08:48:09;;;;;;;5.53;3.90;;;;;;;26.05;43.55;96163.91;5020051;28;20193;-79
2022/07/21 08:50:37;;;;;;;5.38;4.03;;;;;;;26.24;41.44;96162.00;5036146;28;20208;-80
2022/07/21 08:53:03;;;;;;;4.90;4.10;;;;;;;26.35;42.17;96155.03;5053038;28;20197;-79
2022/07/21 08:55:30;;;;;;;4.30;3.90;;;;;;;25.74;42.11;96165.03;5036154;28;20197;-79
2022/07/21 08:57:55;;;;;;;5.10;4.07;;;;;;;26.09;41.64;96166.94;5054256;28;20562;-79
2022/07/21 09:00:21;;;;;;;7.13;4.57;;;;;;;25.73;42.16;96170.59;5034972;28;20174;-79
2022/07/21 09:02:46;;;;;;;4.78;4.28;;;;;;;26.43;42.64;96168.03;5053337;28;20594;-79
2022/07/21 09:05:11;;;;;;;6.47;4.78;;;;;;;25.53;42.80;96173.47;5036801;28;20181;-79
2022/07/21 09:08:09;;;;;;;8.02;4.30;;;;;;;25.41;43.10;96178.75;5036206;28;20189;-79
2022/07/21 09:10:35;;;;;;;6.70;4.88;;;;;;;24.68;44.76;96176.16;4993590;28;20222;-80
2022/07/21 09:13:03;;;;;;;5.20;4.72;;;;;;;25.12;44.68;96173.22;4995078;28;20199;-79
2022/07/21 09:15:31;;;;;;;5.78;4.90;;;;;;;25.60;43.64;96176.88;4993194;28;20604;-81
2022/07/21 09:18:09;;;;;;;5.80;4.82;;;;;;;25.94;42.14;96181.50;4994061;28;20658;-81
2022/07/21 09:20:35;;;;;;;5.00;4.57;;;;;;;26.51;41.12;96168.50;5004769;28;20187;-81
2022/07/21 09:23:12;;;;;;;5.55;4.53;;;;;;;26.34;38.99;96174.72;4981336;28;20624;-81
2022/07/21 09:25:42;;;;;;;5.55;4.07;;;;;;;25.73;41.90;96170.59;4996887;28;20195;-87
2022/07/21 09:28:09;;;;;;;5.38;4.93;;;;;;;25.37;43.21;96182.94;5007808;28;20191;-84
2022/07/21 09:31:07;;;;;;;6.18;4.90;;;;;;;25.29;43.84;96184.03;4993008;28;20572;-85
2022/07/21 09:33:43;;;;;;;4.93;4.53;;;;;;;25.64;44.58;96181.50;4997617;28;20187;-85
2022/07/21 09:36:15;;;;;;;4.70;4.30;;;;;;;26.09;42.97;96181.06;4997861;28;20277;-85
2022/07/21 09:38:52;;;;;;;5.38;4.88;;;;;;;26.32;42.02;96174.94;4997844;28;20207;-84
2022/07/21 09:41:21;;;;;;;6.07;4.75;;;;;;;26.46;41.57;96178.22;4995679;28;20234;-84
2022/07/21 09:43:53;;;;;;;4.72;4.32;;;;;;;26.19;41.36;96175.16;4997510;28;20179;-83
2022/07/21 09:46:24;;;;;;;5.20;4.57;;;;;;;26.05;41.06;96177.22;5028812;28;20723;-84
2022/07/21 09:48:51;;;;;;;5.00;4.50;;;;;;;26.28;41.63;96181.78;5034966;28;20178;-84
2022/07/21 09:51:37;;;;;;;5.50;5.00;;;;;;;26.58;40.71;96171.03;5016721;28;20210;-84
2022/07/21 09:54:09;;;;;;;5.20;4.57;;;;;;;25.88;42.90;96171.75;5014186;28;21043;-84
2022/07/21 09:56:39;;;;;;;5.25;4.75;;;;;;;26.43;42.69;96166.19;5055021;28;20205;-84
2022/07/21 09:59:06;;;;;;;5.72;4.47;;;;;;;26.48;42.88;96168.13;5054309;28;20186;-84
2022/07/21 10:01:32;;;;;;;6.30;5.10;;;;;;;26.16;41.73;96160.47;5037421;28;20232;-85
2022/07/21 10:03:59;;;;;;;5.28;4.47;;;;;;;25.96;41.77;96165.28;5037091;28;20290;-82
2022/07/21 10:06:35;;;;;;;4.82;4.43;;;;;;;25.91;42.21;96159.88;5031412;28;20178;-85
2022/07/21 10:09:02;;;;;;;9.35;5.13;;;;;;;25.73;43.00;96165.28;5046972;28;20738;-85
2022/07/21 10:11:28;;;;;;;5.45;4.93;;;;;;;26.01;42.81;96165.44;5044246;28;20194;-85
2022/07/21 10:13:54;;;;;;;5.95;4.97;;;;;;;26.43;41.26;96162.72;5025121;28;20773;-84
2022/07/21 10:16:20;;;;;;;8.20;5.95;;;;;;;26.01;43.87;96165.44;5012153;28;20794;-84
2022/07/21 10:18:51;;;;;;;6.35;5.75;;;;;;;26.27;42.37;96161.53;5051599;28;20189;-84
2022/07/21 10:21:30;;;;;;;8.65;6.00;;;;;;;26.29;42.06;96162.09;5031348;28;20177;-84
2022/07/21 10:23:56;;;;;;;6.22;5.60;;;;;;;26.04;43.49;96161.50;5017539;28;20197;-83
2022/07/21 10:26:21;;;;;;;7.53;5.80;;;;;;;26.28;41.87;96147.16;5013216;28;20580;-82
2022/07/21 10:28:47;;;;;;;6.38;5.40;;;;;;;26.47;42.23;96156.69;5009346;28;20264;-84
2022/07/21 10:31:16;;;;;;;6.00;5.50;;;;;;;26.71;41.28;96151.34;5018470;28;20662;-84
2022/07/21 10:33:44;;;;;;;8.73;6.10;;;;;;;25.95;42.87;96155.69;5053322;28;20229;-83
2022/07/21 10:36:11;;;;;;;7.95;7.15;;;;;;;25.62;44.53;96149.03;5035349;28;20733;-83
2022/07/21 10:38:37;;;;;;;9.32;6.60;;;;;;;25.38;46.34;96155.28;5019793;28;20189;-84
2022/07/21 10:41:05;;;;;;;7.22;6.60;;;;;;;25.32;45.73;96149.03;5019077;28;20177;-83
2022/07/21 10:43:30;;;;;;;7.30;6.60;;;;;;;25.60;46.41;96152.94;5035104;28;20185;-84
2022/07/21 10:45:57;;;;;;;8.33;7.07;;;;;;;25.65;45.41;96156.53;5052895;28;20625;-84
2022/07/21 10:48:39;;;;;;;7.60;6.95;;;;;;;25.87;46.56;96156.84;5023150;28;20969;-85
2022/07/21 10:51:14;;;;;;;8.35;6.45;;;;;;;26.68;44.29;96149.97;5016787;28;20210;-84
2022/07/21 10:53:40;;;;;;;6.43;5.93;;;;;;;26.64;42.35;96159.44;5032242;28;20192;-84
2022/07/21 10:56:06;;;;;;;8.55;6.20;;;;;;;26.29;42.76;96151.44;5016607;28;20182;-85
2022/07/21 10:58:34;;;;;;;6.90;6.30;;;;;;;26.33;42.28;96155.28;5016995;28;20220;-85
2022/07/21 11:01:05;;;;;;;8.32;6.00;;;;;;;26.69;42.35;96151.56;5019294;28;20319;-84
2022/07/21 11:03:37;;;;;;;6.90;6.18;;;;;;;26.35;42.42;96150.53;5035385;28;20642;-84
2022/07/21 11:06:06;;;;;;;7.72;5.88;;;;;;;26.71;40.96;96151.34;5018151;28;20634;-85
2022/07/21 11:08:41;;;;;;;6.68;6.05;;;;;;;26.52;42.65;96154.13;5035609;28;20188;-83
2022/07/21 11:11:17;;;;;;;7.30;6.60;;;;;;;25.92;43.46;96150.84;5026417;28;20205;-85
2022/07/21 11:14:00;;;;;;;9.02;6.78;;;;;;;26.20;42.44;96161.63;5034039;28;20738;-84
2022/07/21 11:16:41;;;;;;;9.30;6.70;;;;;;;27.13;42.54;96145.81;5050317;28;20194;-84
2022/07/21 11:19:29;;;;;;;6.90;6.35;;;;;;;27.29;39.80;96148.50;5034046;28;20184;-85
2022/07/21 11:21:55;;;;;;;7.63;6.10;;;;;;;26.99;40.47;96138.06;5027108;28;20202;-85
2022/07/21 11:24:22;;;;;;;6.63;5.88;;;;;;;27.14;40.00;96137.59;5036244;28;20198;-84
2022/07/21 11:26:55;;;;;;;6.93;5.80;;;;;;;26.95;39.60;96136.91;5017349;28;20240;-84
2022/07/21 11:29:20;;;;;;;7.60;5.53;;;;;;;27.14;39.52;96148.25;5035997;28;20186;-83